Bucks, AL

7:07 AM CDT on March 27, 2015 (GMT -0500)
Fairhope | | Change Station
CLOSE
Current Station
Airport
Location: Fairhope,
Elevation: 92 ft
Nearby Weather Stations

Elev 92 ft 30.46 °N, 87.88 °W | Updated 12 minutes ago

Overcast
Overcast
52 °F
Feels Like 52 °F
N
12
Wind Variable Wind from North
Gusts 21 mph

Today
High -- | Low -- °F
--% Chance of Precip.
Yesterday
High -- | Low -- °F
Precip. -- in
6:47 AM 7:08 PM
First Quarter, 52% visible
Pressure 29.92 in
Visibility 10.0 miles
Clouds Overcast 1600 ft
Dew Point 46 °F
Humidity 82%
Rainfall 0.07 in
Snow Depth Not available.
UV 0 out of 12
Pollen 9.80 out of 12
Air Quality Not available.
Flu Activity Not available.
METAR KCQF 271155Z AUTO 35010G18KT 10SM OVC016 11/08 A2992 RMK AO2

More Conditions Fewer Conditions

Pressure 29.92 in
Visibility 10.0 miles
Clouds Overcast 1600 ft
Dew Point 46 °F
Humidity 82%
Rainfall 0.07 in
Snow Depth Not available.
UV 0 out of 12
Pollen 9.80 out of 12
Air Quality Not available.
Flu Activity Not available.
METAR KCQF 271155Z AUTO 35010G18KT 10SM OVC016 11/08 A2992 RMK AO2

More Conditions Fewer Conditions

10-Day Weather Forecast

Almanac

Astronomy

Mar. 27, 2015 Rise Set
Actual Time
Civil Twilight
Nautical Twilight
Astronomical Twilight
Moon
Length of Visible Light
Length of Day
Tomorrow will be .
, % of the Moon is Illuminated

Today's Extremes

State Highs State Lows

Community

WunderPhotos

Upload Photos

1,808,711 photos uploaded!

WunderBlogs® & News

Nearby

Air Quality

  Air Quality AQ Index Pollutant
Not available.

Snow Depth

Station Depth Elevation

Earthquake Activity

City Distance Mag. Time & Date
Minimum magnitude displayed is 2.5.

Coastal Water Temperatures

Place Temperature

Stations

Nearby Weather Stations

Station Location Temp. Windchill Dew Point Humidity Wind Precip. Elev Updated Type